LOWILIPZ

Guest
Details From LOWI - Innsbruck Kranebitten
To LIPZ - Venezia Tessera
Flight Number -
Tags generated
Created
Modified
Stats Distance 113 nm / 210 km
Max Altitude 15,000 ft / 4,572 m
Waypoints 3
Social Downloads 7
Likes 0
Share VATSIM

Download

Looking for another format? Having issues loading an existing format? Contact us
Advertisement - Login to hide

Notes

Basic altitude profile: - Ascent Rate: 2500ft/min - Ascent Speed: 250kts - Cruise Altitude: 250ft - Cruise Speed: 420kts - Descent Rate: 1500ft/min - Descent Speed: 250kts Options: - Use NATs: yes - Use PACOTS: yes - Use low airways: yes - Use high airways: yes

Route

LOWI BAKOR LIPZ

ID Type Via Altitude Latitude Longitude Leg Dist Tot Dist Heading (true) Name
O LOWI APT - 0 ft / 0 m 47.26023˚ 11.34397˚ - 0 nm - Innsbruck Kranebitten
BAKOR FIX - 15,000 ft / 4,572 m 46.60889˚ 11.72861˚ 42 nm 42 nm 158° / 158° -
O LIPZ APT - 0 ft / 0 m 45.50479˚ 12.34969˚ 71 nm 113 nm 158° / 159° Venezia Tessera

Altitude Profile

Advertisement - Login to hide

LOWI

Details ICAO LOWI (INN)
Name Innsbruck Kranebitten
Region Austria
Timezone Europe/Vienna (UTC+1.0)
Stats Elevation 1,906 ft / 581 m (AMSL)
Location 47.260226° 11.343967°
Runways 1
Magnetic Variation 3.019° E

METAR

LOWI 132250Z AUTO 27013KT 240V300 9999 FEW080 BKN100 M02/M04 Q1006

Decode

TAF

TAF LOWI 131715Z 1318/1418 27010KT 9999 FEW030 BKN100 TX04/1412Z TNM02/1319Z TEMPO 1324/1418 27015G25KT -SHSN FEW015 BKN060

Decode

Departure Runways

ID Width Length Bearing (true) Bearing (mag) Surface Threshold Offset Overrun Length
08 148 ft / 45 m 6,545 ft / 1,995 m 81.02° 78.00° Asphalt 338 ft / 103 m 0 ft / 0 m
26 148 ft / 45 m 6,545 ft / 1,995 m 261.04° 258.02° Asphalt 0 ft / 0 m 0 ft / 0 m

LIPZ

Details ICAO LIPZ (VCE)
Name Venezia Tessera
Region Italy
Timezone Europe/Rome (UTC+1.0)
Stats Elevation 7 ft / 2 m (AMSL)
Location 45.504791° 12.349691°
Runways 2
Magnetic Variation 3.179° E

METAR

LIPZ 132250Z 28002KT 9999 SCT020 04/02 Q1014 NOSIG

Decode

TAF

TAF LIPZ 131700Z 1318/1424 VRB05KT 9999 BKN020 BECMG 1319/1322 3000 BR TEMPO 1400/1406 0400 FG BKN004 BECMG 1408/1410 8000 BECMG 1416/1418 3000 BR

Decode

Destination Runways

ID Width Length Bearing (true) Bearing (mag) Surface Threshold Offset Overrun Length
04L 148 ft / 45 m 9,112 ft / 2,777 m 42.01° 38.83° Asphalt 312 ft / 95 m 0 ft / 0 m
04R 148 ft / 45 m 10,834 ft / 3,302 m 41.99° 38.81° Asphalt 0 ft / 0 m 0 ft / 0 m
22L 148 ft / 45 m 10,834 ft / 3,302 m 222.01° 218.83° Asphalt 0 ft / 0 m 0 ft / 0 m
22R 148 ft / 45 m 9,112 ft / 2,777 m 222.02° 218.84° Asphalt 0 ft / 0 m 0 ft / 0 m

Approach Navaids

Runway Type Ident Frequency Range Bearing (true) Bearing (mag) Slope Elevation
04R Localiser VTS 109.95 MHz 18 nm / 33 km 42.02° 38.84° - 13 ft / 4 m (AMSL)
04R Glidescope VTS 109.95 MHz 10 nm / 19 km 42.00° 38.82° 3.00° 52 ft / 16 m (AMSL)
04R DME VTS 109.95 MHz 18 nm / 33 km - - - 26 ft / 8 m (AMSL)

Popular Alternatives